Time;durP1;ratioP1;P1;durP2;ratioP2;P2;SDS_P1;SDS_P2;PMS_P1;PMS_P2;Temp;Humidity;BMP_temperature;BMP_pressure;BME280_temperature;BME280_humidity;BME280_pressure;Samples;Min_cycle;Max_cycle;Signal;HPM_P1;HPM_P2
2022/05/04 00:01:53;;;;;;;9.07;7.60;;;12.50;99.90;;;;;;5074306;28;20232;-59
2022/05/04 00:04:20;;;;;;;7.53;6.60;;;12.50;99.90;;;;;;5073650;28;20205;-59
2022/05/04 00:06:47;;;;;;;8.07;6.17;;;12.60;99.90;;;;;;5073581;28;20241;-59
2022/05/04 00:09:13;;;;;;;6.10;5.37;;;12.70;99.90;;;;;;5073461;28;20251;-59
2022/05/04 00:11:41;;;;;;;7.60;5.90;;;12.80;99.90;;;;;;5073488;28;20224;-59
2022/05/04 00:14:09;;;;;;;38.37;34.43;;;12.80;99.90;;;;;;5073819;28;20216;-60
2022/05/04 00:16:36;;;;;;;33.23;29.70;;;12.90;99.90;;;;;;5073428;28;20205;-59
2022/05/04 00:19:02;;;;;;;8.33;7.53;;;12.90;99.90;;;;;;5073030;28;20201;-60
2022/05/04 00:21:29;;;;;;;6.23;5.60;;;13.00;99.90;;;;;;5073227;28;20228;-60
2022/05/04 00:23:56;;;;;;;6.50;5.37;;;13.10;99.90;;;;;;5073437;28;20208;-59
2022/05/04 00:26:23;;;;;;;7.17;5.77;;;13.10;99.90;;;;;;5073640;28;20231;-57
2022/05/04 00:28:49;;;;;;;8.53;5.70;;;13.10;99.90;;;;;;5073298;28;20777;-57
2022/05/04 00:31:17;;;;;;;5.97;5.10;;;13.10;99.90;;;;;;5072686;28;20565;-58
2022/05/04 00:33:45;;;;;;;7.13;5.30;;;13.00;99.90;;;;;;5072930;28;20620;-57
2022/05/04 00:36:12;;;;;;;6.37;5.77;;;12.90;99.90;;;;;;5073223;28;20208;-57
2022/05/04 00:38:38;;;;;;;5.60;5.10;;;12.90;99.90;;;;;;5073046;28;20209;-59
2022/05/04 00:41:05;;;;;;;6.30;5.57;;;12.90;99.90;;;;;;5072473;28;20240;-58
2022/05/04 00:43:32;;;;;;;8.63;5.33;;;12.90;99.90;;;;;;5072805;28;20205;-58
2022/05/04 00:45:58;;;;;;;5.23;4.73;;;12.90;99.90;;;;;;5072729;28;20299;-58
2022/05/04 00:48:27;;;;;;;5.77;5.17;;;12.80;99.90;;;;;;5073029;28;20205;-58
2022/05/04 00:50:54;;;;;;;6.57;5.43;;;12.80;99.90;;;;;;5072475;28;20727;-58
2022/05/04 00:53:21;;;;;;;8.87;6.10;;;12.80;99.90;;;;;;5072999;28;20304;-58
2022/05/04 00:55:50;;;;;;;6.70;5.43;;;12.80;99.90;;;;;;5072765;28;20212;-58
2022/05/04 01:01:03;;;;;;;6.33;5.73;;;12.60;99.90;;;;;;5072296;28;20773;-58
2022/05/04 01:03:31;;;;;;;7.07;6.23;;;12.60;99.90;;;;;;5072738;28;20209;-58
2022/05/04 01:05:58;;;;;;;7.77;5.80;;;12.70;99.90;;;;;;5072501;28;20216;-58
2022/05/04 01:08:25;;;;;;;6.23;5.60;;;12.70;99.90;;;;;;5072438;28;20200;-58
2022/05/04 01:10:51;;;;;;;6.73;5.37;;;12.70;99.90;;;;;;5072016;28;20228;-58
2022/05/04 01:13:20;;;;;;;6.63;5.80;;;12.70;99.90;;;;;;5072132;28;20765;-58
2022/05/04 01:15:47;;;;;;;6.10;5.50;;;12.80;99.90;;;;;;5072583;28;20208;-58
2022/05/04 01:18:13;;;;;;;6.37;5.77;;;12.80;99.90;;;;;;5072431;28;20231;-58
2022/05/04 01:20:41;;;;;;;7.07;6.20;;;12.80;99.90;;;;;;5072217;28;20236;-58
2022/05/04 01:23:10;;;;;;;6.10;5.50;;;12.80;99.90;;;;;;5072410;28;20200;-59
2022/05/04 01:25:36;;;;;;;6.40;5.80;;;12.70;99.90;;;;;;5072026;28;20237;-58
2022/05/04 01:28:03;;;;;;;6.43;5.83;;;12.70;99.90;;;;;;5072061;28;20209;-59
2022/05/04 01:30:32;;;;;;;7.13;5.43;;;12.80;99.90;;;;;;5072051;28;20228;-58
2022/05/04 01:32:58;;;;;;;6.80;6.10;;;12.80;99.90;;;;;;5071926;28;20807;-58
2022/05/04 01:35:25;;;;;;;7.70;6.70;;;12.80;99.90;;;;;;5072226;28;20685;-58
2022/05/04 01:37:52;;;;;;;6.30;5.67;;;12.70;99.90;;;;;;5071881;28;20641;-58
2022/05/04 01:40:20;;;;;;;6.50;5.60;;;12.60;99.90;;;;;;5071627;28;20522;-60
2022/05/04 01:42:47;;;;;;;7.03;5.80;;;12.60;99.90;;;;;;5072196;28;20209;-58
2022/05/04 01:45:13;;;;;;;8.70;7.80;;;12.50;99.90;;;;;;5072288;28;20310;-58
2022/05/04 01:47:40;;;;;;;12.17;8.80;;;12.50;99.90;;;;;;5073093;28;20680;-58
2022/05/04 01:50:07;;;;;;;7.60;6.87;;;12.50;99.90;;;;;;5072882;28;20212;-59
2022/05/04 01:52:34;;;;;;;8.67;6.67;;;12.50;99.90;;;;;;5072145;28;20232;-58
2022/05/04 01:55:01;;;;;;;7.57;6.77;;;12.40;99.90;;;;;;5071584;28;20220;-58
2022/05/04 01:57:29;;;;;;;7.43;6.73;;;12.40;99.90;;;;;;5071971;28;20205;-58
2022/05/04 01:59:57;;;;;;;7.63;6.90;;;12.40;99.90;;;;;;5071607;28;20250;-59
2022/05/04 02:02:24;;;;;;;8.83;6.40;;;12.40;99.90;;;;;;5072077;28;20615;-58
2022/05/04 02:04:50;;;;;;;6.27;5.67;;;12.40;99.90;;;;;;5071878;28;20266;-59
2022/05/04 02:07:17;;;;;;;6.60;5.93;;;12.40;99.90;;;;;;5071668;28;20262;-58
2022/05/04 02:09:44;;;;;;;7.80;6.13;;;12.50;99.90;;;;;;5071538;28;20691;-58
2022/05/04 02:12:11;;;;;;;6.43;5.83;;;12.60;99.90;;;;;;5071688;28;20243;-58
2022/05/04 02:14:40;;;;;;;7.20;6.17;;;12.60;99.90;;;;;;5071776;28;20208;-58
2022/05/04 02:17:07;;;;;;;6.37;5.77;;;12.70;99.90;;;;;;5071743;28;20247;-58
2022/05/04 02:19:33;;;;;;;6.47;5.87;;;12.80;99.90;;;;;;5071401;28;20209;-58
2022/05/04 02:22:00;;;;;;;7.37;6.20;;;12.90;99.90;;;;;;5071340;28;20221;-59
2022/05/04 02:24:27;;;;;;;6.47;5.87;;;13.00;99.90;;;;;;5071737;28;20209;-59
2022/05/04 02:26:53;;;;;;;6.80;6.00;;;13.00;99.90;;;;;;5071659;28;20629;-59
2022/05/04 02:29:20;;;;;;;6.37;5.67;;;13.10;99.90;;;;;;5071357;28;20217;-59
2022/05/04 02:31:48;;;;;;;6.57;5.97;;;13.20;99.90;;;;;;5071346;28;20228;-58
2022/05/04 02:34:15;;;;;;;6.97;5.83;;;13.20;99.90;;;;;;5071865;28;20209;-59
2022/05/04 02:39:26;;;;;;;8.60;5.50;;;13.30;99.90;;;;;;5074447;28;20682;-59
2022/05/04 02:41:52;;;;;;;6.33;5.63;;;13.30;99.90;;;;;;5075384;28;20254;-58
2022/05/04 02:44:19;;;;;;;6.40;5.80;;;13.30;99.90;;;;;;5075206;28;20209;-59
2022/05/04 02:46:49;;;;;;;7.70;6.43;;;13.40;99.90;;;;;;5075191;28;20209;-58
2022/05/04 02:49:15;;;;;;;7.93;6.10;;;13.40;99.90;;;;;;5075315;28;20299;-59
2022/05/04 02:51:42;;;;;;;6.63;5.60;;;13.40;99.90;;;;;;5075135;28;20221;-59
2022/05/04 02:54:09;;;;;;;7.43;6.27;;;13.30;99.90;;;;;;5075174;28;20208;-59
2022/05/04 02:56:36;;;;;;;6.67;6.00;;;13.30;99.90;;;;;;5074967;28;20201;-60
2022/05/04 02:59:03;;;;;;;7.90;5.43;;;13.20;99.90;;;;;;5074972;28;20209;-60
2022/05/04 03:04:15;;;;;;;6.77;5.67;;;13.20;99.90;;;;;;5075441;28;20223;-60
2022/05/04 03:06:42;;;;;;;6.53;5.67;;;13.10;99.90;;;;;;5076309;28;20251;-60
2022/05/04 03:09:10;;;;;;;7.30;5.73;;;13.10;99.90;;;;;;5076381;28;20266;-59
2022/05/04 03:11:55;;;;;;;7.03;5.57;;;13.10;99.90;;;;;;5076334;28;20228;-60
2022/05/04 03:14:23;;;;;;;5.90;5.20;;;13.10;99.90;;;;;;5075266;28;20200;-59
2022/05/04 03:16:51;;;;;;;6.40;5.80;;;13.10;99.90;;;;;;5074993;28;20304;-59
2022/05/04 03:19:19;;;;;;;6.13;5.17;;;13.10;99.90;;;;;;5074613;28;20367;-59
2022/05/04 03:21:46;;;;;;;6.73;6.03;;;13.10;99.90;;;;;;5074394;28;20750;-59
2022/05/04 03:24:12;;;;;;;10.00;8.10;;;13.20;99.90;;;;;;5075008;28;20213;-59
2022/05/04 03:26:39;;;;;;;9.30;8.13;;;13.20;99.90;;;;;;5074440;28;20209;-59
2022/05/04 03:29:06;;;;;;;6.93;6.23;;;13.20;99.90;;;;;;5074614;28;20255;-60
2022/05/04 03:31:33;;;;;;;6.90;6.13;;;13.30;99.90;;;;;;5074143;28;20712;-59
2022/05/04 03:34:01;;;;;;;6.83;6.13;;;13.30;99.90;;;;;;5074297;28;20228;-60
2022/05/04 03:36:29;;;;;;;6.07;5.50;;;13.40;99.90;;;;;;5074353;28;20209;-60
2022/05/04 03:38:56;;;;;;;6.13;5.53;;;13.40;99.90;;;;;;5074178;28;20209;-59
2022/05/04 03:41:22;;;;;;;7.83;6.23;;;13.40;99.90;;;;;;5074250;28;20228;-60
2022/05/04 03:43:50;;;;;;;7.67;6.00;;;13.40;99.90;;;;;;5074293;28;20197;-60
2022/05/04 03:46:19;;;;;;;7.13;6.43;;;13.40;99.90;;;;;;5074307;28;20201;-60
2022/05/04 03:48:47;;;;;;;9.00;7.07;;;13.40;99.90;;;;;;5074067;28;20603;-60
2022/05/04 03:51:16;;;;;;;7.30;6.60;;;13.40;99.90;;;;;;5072762;28;20228;-60
2022/05/04 03:53:44;;;;;;;7.47;6.77;;;13.40;99.90;;;;;;5074183;28;20224;-58
2022/05/04 03:56:10;;;;;;;7.10;6.40;;;13.40;99.90;;;;;;5074099;28;20205;-59
2022/05/04 03:58:38;;;;;;;7.20;6.50;;;13.40;99.90;;;;;;5074080;28;20269;-59
2022/05/04 04:01:05;;;;;;;7.37;6.60;;;13.40;99.90;;;;;;5073516;28;20328;-58
2022/05/04 04:03:32;;;;;;;8.80;6.73;;;13.40;99.90;;;;;;5074116;28;20243;-58
2022/05/04 04:05:58;;;;;;;9.63;6.47;;;13.40;99.90;;;;;;5074247;28;20212;-59
2022/05/04 04:08:26;;;;;;;7.53;6.70;;;13.40;99.90;;;;;;5073878;28;20204;-58
2022/05/04 04:10:55;;;;;;;10.07;6.97;;;13.50;99.90;;;;;;5073708;28;20231;-59
2022/05/04 04:13:22;;;;;;;9.90;6.77;;;13.50;99.90;;;;;;5073688;28;20236;-59
2022/05/04 04:15:51;;;;;;;7.40;6.70;;;13.60;99.90;;;;;;5073552;28;20587;-59
2022/05/04 04:18:18;;;;;;;7.10;6.40;;;13.60;99.90;;;;;;5073532;28;20205;-59
2022/05/04 04:23:29;;;;;;;8.27;6.87;;;13.70;99.90;;;;;;5073522;28;20231;-59
2022/05/04 04:25:57;;;;;;;7.43;6.67;;;13.70;99.90;;;;;;5073522;28;20208;-59
2022/05/04 04:28:24;;;;;;;10.53;7.67;;;13.70;99.90;;;;;;5073157;28;20205;-59
2022/05/04 04:30:51;;;;;;;10.50;7.10;;;13.80;99.90;;;;;;5073030;28;20232;-59
2022/05/04 04:33:18;;;;;;;10.17;7.13;;;13.80;99.90;;;;;;5072964;28;20225;-58
2022/05/04 04:35:45;;;;;;;9.97;7.30;;;13.80;99.90;;;;;;5073322;28;20706;-59
2022/05/04 04:38:11;;;;;;;8.27;6.27;;;13.80;99.90;;;;;;5073235;28;20240;-59
2022/05/04 04:40:39;;;;;;;8.83;6.47;;;13.90;99.90;;;;;;5072570;28;20229;-60
2022/05/04 04:43:07;;;;;;;7.57;6.87;;;13.90;99.90;;;;;;5073047;28;20200;-59
2022/05/04 04:45:34;;;;;;;7.23;6.40;;;13.90;99.90;;;;;;5072786;28;20205;-59
2022/05/04 04:48:01;;;;;;;7.43;6.73;;;14.00;99.90;;;;;;5072831;28;20266;-59
2022/05/04 04:50:28;;;;;;;7.50;6.80;;;14.00;99.90;;;;;;5072737;28;20231;-59
2022/05/04 04:52:55;;;;;;;9.30;7.97;;;14.00;99.90;;;;;;5072949;28;20569;-59
2022/05/04 04:55:21;;;;;;;7.63;6.70;;;14.00;99.90;;;;;;5072809;28;20605;-59
2022/05/04 04:57:48;;;;;;;8.97;6.13;;;14.10;99.90;;;;;;5072841;28;20205;-60
2022/05/04 05:00:17;;;;;;;7.57;6.87;;;14.20;99.90;;;;;;5072140;28;20292;-60
2022/05/04 05:02:44;;;;;;;7.57;6.47;;;14.20;99.90;;;;;;5072398;28;20201;-59
2022/05/04 05:05:11;;;;;;;7.43;6.73;;;14.20;99.90;;;;;;5072645;28;20204;-59
2022/05/04 05:07:38;;;;;;;7.57;6.80;;;14.30;99.90;;;;;;5072136;28;20725;-59
2022/05/04 05:10:06;;;;;;;10.40;7.37;;;14.30;99.90;;;;;;5072509;28;20201;-59
2022/05/04 05:12:33;;;;;;;9.07;6.77;;;14.40;99.90;;;;;;5072191;28;20586;-59
2022/05/04 05:17:45;;;;;;;9.03;6.30;;;14.50;99.90;;;;;;5072463;28;20203;-59
2022/05/04 05:20:13;;;;;;;8.43;6.73;;;14.60;99.90;;;;;;5071869;28;20296;-59
2022/05/04 05:22:40;;;;;;;7.30;6.27;;;14.70;99.90;;;;;;5072281;28;20196;-59
2022/05/04 05:25:07;;;;;;;6.93;6.23;;;14.80;99.90;;;;;;5072187;28;20242;-59
2022/05/04 05:27:34;;;;;;;8.33;6.30;;;15.00;99.90;;;;;;5072082;28;20270;-59
2022/05/04 05:30:01;;;;;;;7.10;6.13;;;15.20;99.90;;;;;;5071912;28;20877;-59
2022/05/04 05:32:27;;;;;;;7.37;6.03;;;15.30;99.90;;;;;;5072109;28;20208;-59
2022/05/04 05:34:55;;;;;;;7.57;6.47;;;15.50;99.90;;;;;;5071961;28;20578;-59
2022/05/04 05:37:22;;;;;;;6.97;6.27;;;15.60;99.90;;;;;;5071879;28;20664;-59
2022/05/04 05:39:49;;;;;;;7.83;5.70;;;15.80;99.90;;;;;;5071723;28;20591;-59
2022/05/04 05:42:16;;;;;;;8.00;5.53;;;16.00;99.90;;;;;;5071860;28;20703;-59
2022/05/04 05:44:42;;;;;;;9.17;6.10;;;16.30;99.90;;;;;;5072002;28;20374;-59
2022/05/04 05:47:09;;;;;;;7.33;5.93;;;16.40;99.90;;;;;;5071736;28;20216;-59
2022/05/04 05:49:36;;;;;;;10.23;6.10;;;16.40;99.90;;;;;;5071499;28;20672;-59
2022/05/04 05:52:07;;;;;;;6.70;5.57;;;16.70;99.90;;;;;;5071766;28;20624;-59
2022/05/04 05:54:34;;;;;;;6.33;5.70;;;17.00;99.90;;;;;;5071569;28;20229;-59
2022/05/04 05:57:00;;;;;;;7.80;5.23;;;17.30;99.90;;;;;;5072024;28;20258;-59
2022/05/04 05:59:27;;;;;;;8.73;6.03;;;17.60;99.90;;;;;;5071751;28;20205;-59
2022/05/04 06:01:55;;;;;;;7.43;6.73;;;17.70;99.90;;;;;;5071809;28;20233;-59
2022/05/04 06:04:22;;;;;;;6.73;6.10;;;17.90;99.90;;;;;;5071780;28;20201;-58
2022/05/04 06:06:49;;;;;;;6.57;5.70;;;18.10;99.90;;;;;;5071750;28;20250;-59
2022/05/04 06:09:17;;;;;;;5.85;5.28;;;18.20;99.90;;;;;;5071746;28;20555;-58
2022/05/04 06:11:44;;;;;;;7.20;5.35;;;18.30;99.90;;;;;;5071276;28;20644;-58
2022/05/04 06:14:11;;;;;;;6.20;5.60;;;18.50;99.90;;;;;;5074629;28;20593;-58
2022/05/04 06:16:37;;;;;;;7.90;5.33;;;18.70;99.90;;;;;;5075913;28;20313;-59
2022/05/04 06:19:04;;;;;;;8.20;5.40;;;18.80;99.90;;;;;;5076003;28;20201;-59
2022/05/04 06:21:31;;;;;;;9.38;5.15;;;18.70;99.90;;;;;;5075242;28;20681;-60
2022/05/04 06:23:58;;;;;;;8.35;5.72;;;18.70;99.90;;;;;;5075817;28;20213;-58
2022/05/04 06:26:26;;;;;;;7.55;5.07;;;18.80;99.90;;;;;;5075677;28;20216;-61
2022/05/04 06:28:53;;;;;;;5.78;5.18;;;18.80;99.90;;;;;;5075584;28;20217;-59
2022/05/04 06:34:11;;;;;;;5.95;5.38;;;19.00;99.90;;;;;;5075302;28;20247;-58
2022/05/04 06:36:40;;;;;;;12.10;8.30;;;19.00;99.90;;;;;;5075308;28;20200;-58
2022/05/04 06:39:08;;;;;;;18.55;14.27;;;19.10;99.90;;;;;;5075186;28;20291;-59
2022/05/04 06:41:37;;;;;;;8.55;5.07;;;19.20;99.90;;;;;;5075242;28;20277;-59
2022/05/04 06:44:03;;;;;;;9.13;6.45;;;19.30;99.90;;;;;;5075546;28;20205;-58
2022/05/04 06:46:31;;;;;;;5.97;5.05;;;19.40;99.90;;;;;;5075108;28;20208;-59
2022/05/04 06:48:57;;;;;;;5.85;4.95;;;19.40;99.90;;;;;;5075465;28;20209;-64
2022/05/04 06:51:24;;;;;;;8.75;5.38;;;19.30;99.90;;;;;;5074868;28;20711;-60
2022/05/04 06:53:51;;;;;;;6.80;4.97;;;19.20;99.90;;;;;;5071068;28;20450;-59
2022/05/04 06:56:18;;;;;;;7.05;4.72;;;19.30;99.90;;;;;;5074794;28;20254;-58
2022/05/04 06:58:47;;;;;;;10.05;5.15;;;19.40;99.90;;;;;;5074818;28;20295;-58
2022/05/04 07:01:14;;;;;;;7.93;4.75;;;19.60;99.90;;;;;;5074095;28;20240;-58
2022/05/04 07:03:40;;;;;;;6.53;4.95;;;19.80;99.90;;;;;;5087162;28;20254;-58
2022/05/04 07:06:07;;;;;;;6.50;5.18;;;20.10;99.90;;;;;;5094486;28;20208;-58
2022/05/04 07:08:34;;;;;;;7.85;5.60;;;20.40;99.90;;;;;;5094914;28;20619;-58
2022/05/04 07:11:01;;;;;;;6.40;5.03;;;20.70;99.90;;;;;;5094807;28;20280;-63
2022/05/04 07:13:28;;;;;;;7.22;5.10;;;21.10;99.90;;;;;;5094475;28;20587;-63
2022/05/04 07:15:57;;;;;;;5.28;4.45;;;21.40;99.90;;;;;;5094349;28;20204;-61
2022/05/04 07:18:24;;;;;;;7.50;4.50;;;21.60;99.90;;;;;;5094311;28;20212;-61
2022/05/04 07:20:51;;;;;;;5.55;5.05;;;21.80;99.90;;;;;;5094157;28;20228;-61
2022/05/04 07:23:18;;;;;;;5.53;4.95;;;22.10;99.90;;;;;;5094358;28;20248;-65
2022/05/04 07:25:46;;;;;;;6.45;4.60;;;22.20;99.90;;;;;;5094304;28;20295;-60
2022/05/04 07:28:13;;;;;;;6.20;4.55;;;22.30;99.90;;;;;;5090409;28;20201;-60
2022/05/04 07:30:39;;;;;;;5.88;5.28;;;22.40;99.90;;;;;;5073513;28;20709;-62
2022/05/04 07:33:08;;;;;;;6.75;5.75;;;22.30;99.90;;;;;;5074233;28;20294;-60
2022/05/04 07:35:34;;;;;;;7.78;5.10;;;21.90;99.90;;;;;;5074212;28;20254;-60
2022/05/04 07:38:01;;;;;;;6.20;5.38;;;21.50;99.90;;;;;;5074164;28;20204;-60
2022/05/04 07:43:12;;;;;;;6.25;5.03;;;21.30;99.90;;;;;;5074094;28;20647;-60
2022/05/04 07:45:38;;;;;;;7.30;5.43;;;21.40;99.90;;;;;;5074028;28;20285;-61
2022/05/04 07:48:07;;;;;;;7.28;5.50;;;21.50;99.90;;;;;;5074267;28;20209;-61
2022/05/04 07:50:34;;;;;;;5.95;4.57;;;21.60;99.90;;;;;;5074006;28;20233;-61
2022/05/04 07:53:02;;;;;;;7.05;4.88;;;21.70;99.90;;;;;;5073764;28;20677;-59
2022/05/04 07:55:30;;;;;;;7.28;4.90;;;21.90;99.90;;;;;;5068183;28;20197;-58
2022/05/04 07:57:57;;;;;;;5.82;4.15;;;21.90;99.90;;;;;;5073729;28;20251;-56
2022/05/04 08:05:54;;;;;;;6.43;4.22;;;22.00;99.90;;;;;;5073914;28;20212;-58
2022/05/04 08:08:21;;;;;;;4.55;4.13;;;21.90;99.90;;;;;;5073598;28;20233;-58
2022/05/04 08:10:48;;;;;;;5.93;3.63;;;21.70;99.90;;;;;;5071824;28;20231;-62
2022/05/04 08:13:15;;;;;;;7.60;3.95;;;21.60;99.90;;;;;;5073613;28;20209;-56
2022/05/04 08:15:41;;;;;;;4.88;3.75;;;21.40;99.90;;;;;;5073261;28;20211;-57
2022/05/04 08:18:09;;;;;;;4.45;3.85;;;21.10;99.90;;;;;;5061119;28;20213;-58
2022/05/04 08:20:36;;;;;;;4.45;4.05;;;20.90;99.90;;;;;;5052942;28;20233;-59
2022/05/04 08:23:03;;;;;;;4.63;3.72;;;20.90;99.90;;;;;;5053293;28;20205;-59
2022/05/04 08:25:30;;;;;;;4.43;3.95;;;21.00;99.90;;;;;;5053386;28;20204;-59
2022/05/04 08:27:56;;;;;;;6.68;4.53;;;20.90;99.90;;;;;;5053275;28;20206;-59
2022/05/04 08:30:23;;;;;;;6.80;4.22;;;20.70;99.90;;;;;;5054364;28;20264;-59
2022/05/04 08:32:50;;;;;;;7.25;3.90;;;20.40;99.90;;;;;;5054359;28;20202;-59
2022/05/04 08:35:18;;;;;;;8.38;4.60;;;20.30;99.90;;;;;;5054414;28;20232;-60
2022/05/04 08:37:46;;;;;;;5.68;3.90;;;20.20;99.90;;;;;;5053923;28;20206;-59
2022/05/04 08:40:13;;;;;;;8.02;3.80;;;20.30;99.90;;;;;;5052538;28;20214;-59
2022/05/04 08:42:42;;;;;;;7.60;4.15;;;20.50;99.90;;;;;;5052809;28;20263;-59
2022/05/04 08:45:11;;;;;;;5.10;3.67;;;20.70;99.90;;;;;;5052483;28;20756;-59
2022/05/04 08:47:40;;;;;;;4.45;3.83;;;20.90;99.90;;;;;;5052756;28;20245;-59
2022/05/04 08:50:13;;;;;;;5.90;4.07;;;20.90;99.70;;;;;;5056731;28;20233;-58
2022/05/04 08:52:51;;;;;;;4.97;4.47;;;21.00;99.80;;;;;;5068924;28;20201;-60
2022/05/04 08:55:19;;;;;;;6.95;4.68;;;21.20;99.80;;;;;;5070909;28;20275;-58
2022/05/04 08:57:46;;;;;;;5.35;4.35;;;21.20;99.60;;;;;;5071448;28;20201;-59
2022/05/04 09:00:13;;;;;;;4.40;4.00;;;21.40;99.30;;;;;;5072230;28;20240;-60
2022/05/04 09:02:40;;;;;;;6.65;4.15;;;21.70;98.80;;;;;;5072606;28;20589;-62
2022/05/04 09:05:14;;;;;;;10.00;4.70;;;21.90;98.40;;;;;;5072239;28;20203;-60
2022/05/04 09:07:42;;;;;;;6.97;4.70;;;22.30;98.30;;;;;;5072421;28;20242;-62
2022/05/04 09:10:16;;;;;;;5.15;4.45;;;22.60;97.40;;;;;;5069576;28;20212;-61
2022/05/04 09:12:45;;;;;;;6.68;5.00;;;22.90;96.90;;;;;;5072425;28;20728;-58
2022/05/04 09:15:18;;;;;;;7.72;5.28;;;23.00;97.50;;;;;;5072773;28;20232;-58
2022/05/04 09:17:45;;;;;;;6.47;5.18;;;23.10;97.60;;;;;;5072353;28;20201;-58
2022/05/04 09:22:58;;;;;;;6.32;5.05;;;23.10;98.40;;;;;;5072210;28;20326;-57
2022/05/04 09:25:25;;;;;;;5.10;4.60;;;23.00;98.60;;;;;;5072364;28;20619;-58
2022/05/04 09:27:52;;;;;;;6.40;5.05;;;23.00;99.00;;;;;;5072191;28;20650;-59
2022/05/04 09:30:25;;;;;;;6.60;5.40;;;23.00;98.30;;;;;;5071786;28;20228;-58
2022/05/04 09:32:52;;;;;;;6.63;5.72;;;22.90;98.70;;;;;;5072074;28;20209;-58
2022/05/04 09:35:19;;;;;;;6.75;5.63;;;22.90;98.60;;;;;;5071837;28;20225;-58
2022/05/04 09:46:04;;;;;;;5.63;4.85;;;22.50;98.90;;;;;;5072283;28;20705;-58
2022/05/04 09:48:32;;;;;;;5.15;4.45;;;22.20;99.10;;;;;;5071287;28;20702;-58
2022/05/04 09:51:03;;;;;;;4.78;4.22;;;22.00;99.80;;;;;;5071759;28;20228;-58
2022/05/04 09:53:30;;;;;;;4.72;4.03;;;21.90;98.60;;;;;;5072013;28;20680;-59
2022/05/04 09:55:59;;;;;;;5.07;4.22;;;21.60;99.70;;;;;;5071801;28;20232;-57
2022/05/04 09:58:26;;;;;;;7.93;4.30;;;21.60;99.90;;;;;;5071751;28;20266;-58
2022/05/04 10:00:54;;;;;;;5.32;4.10;;;21.60;99.90;;;;;;5071472;28;20294;-58
2022/05/04 10:03:21;;;;;;;5.20;4.18;;;21.70;99.90;;;;;;5071737;28;20294;-58
2022/05/04 10:05:48;;;;;;;7.00;4.40;;;21.60;98.80;;;;;;5071722;28;20243;-58
2022/05/04 10:08:16;;;;;;;4.70;4.25;;;21.10;99.90;;;;;;5071684;28;20247;-58
2022/05/04 10:10:43;;;;;;;5.22;4.72;;;20.70;99.80;;;;;;5070853;28;20224;-57
2022/05/04 10:13:11;;;;;;;8.13;5.25;;;20.50;99.90;;;;;;5071430;28;20558;-58
2022/05/04 10:15:40;;;;;;;6.55;5.22;;;20.30;99.90;;;;;;5071391;28;20320;-58
2022/05/04 10:18:11;;;;;;;5.97;5.35;;;20.40;99.90;;;;;;5071528;28;20205;-58
2022/05/04 10:20:41;;;;;;;7.60;6.15;;;20.50;99.90;;;;;;5071334;28;20228;-58
2022/05/04 10:23:12;;;;;;;8.10;6.05;;;20.40;99.90;;;;;;5071137;28;20205;-58
2022/05/04 10:25:42;;;;;;;7.22;5.90;;;20.20;99.90;;;;;;5071463;28;20212;-58
2022/05/04 10:28:13;;;;;;;10.75;6.35;;;20.10;99.90;;;;;;5069977;28;20209;-57
2022/05/04 10:30:47;;;;;;;6.97;6.22;;;20.00;99.90;;;;;;5070016;28;20281;-57
2022/05/04 10:33:15;;;;;;;7.47;6.45;;;20.00;99.90;;;;;;5071247;28;20572;-57
2022/05/04 10:35:44;;;;;;;8.40;6.80;;;20.20;99.90;;;;;;5071044;28;20232;-58
2022/05/04 10:38:13;;;;;;;8.95;7.57;;;20.30;99.90;;;;;;5070519;28;20209;-62
2022/05/04 10:40:43;;;;;;;7.63;6.93;;;20.40;99.90;;;;;;5071026;28;20225;-61
2022/05/04 10:43:13;;;;;;;8.38;6.72;;;20.50;99.90;;;;;;5071209;28;20209;-61
2022/05/04 10:45:41;;;;;;;9.55;6.63;;;20.60;99.90;;;;;;5071063;28;20691;-62
2022/05/04 10:48:29;;;;;;;7.90;7.20;;;20.90;99.90;;;;;;5070985;28;20213;-62
2022/05/04 10:51:04;;;;;;;8.60;7.65;;;20.70;99.90;;;;;;5066705;28;20310;-60
2022/05/04 10:53:42;;;;;;;8.45;7.60;;;20.60;99.90;;;;;;5050540;28;20205;-64
2022/05/04 10:56:12;;;;;;;9.38;7.43;;;20.80;99.90;;;;;;5050702;28;20236;-62
2022/05/04 10:58:45;;;;;;;7.60;6.70;;;21.30;99.90;;;;;;5051226;28;20579;-60
2022/05/04 11:01:17;;;;;;;7.15;6.45;;;21.60;99.90;;;;;;5052870;28;20229;-59
2022/05/04 11:04:07;;;;;;;12.20;7.90;;;22.00;99.90;;;;;;5052927;28;20212;-60
2022/05/04 11:06:35;;;;;;;12.63;10.93;;;22.50;99.80;;;;;;5051789;28;20244;-60
2022/05/04 11:09:07;;;;;;;8.85;6.43;;;23.20;98.90;;;;;;5054330;28;20210;-61
2022/05/04 11:11:34;;;;;;;10.13;6.30;;;23.40;97.60;;;;;;5054532;28;20230;-61
2022/05/04 11:14:03;;;;;;;11.60;7.18;;;23.60;97.10;;;;;;5054378;28;20205;-61
2022/05/04 11:16:29;;;;;;;7.93;5.90;;;23.80;97.20;;;;;;5054856;28;20221;-61
2022/05/04 11:18:58;;;;;;;7.25;5.85;;;24.00;96.70;;;;;;5053523;28;20263;-61
2022/05/04 11:21:27;;;;;;;5.22;4.50;;;24.10;96.30;;;;;;5054173;28;20283;-61
2022/05/04 11:23:56;;;;;;;4.60;4.07;;;24.20;94.50;;;;;;5054221;28;20210;-61
2022/05/04 11:26:25;;;;;;;5.50;3.65;;;24.00;93.40;;;;;;5054315;28;20251;-59
2022/05/04 11:28:54;;;;;;;4.32;3.42;;;23.90;93.50;;;;;;5054299;28;20263;-58
2022/05/04 11:31:22;;;;;;;5.15;3.80;;;24.10;92.90;;;;;;5065447;28;20247;-59
2022/05/04 11:33:50;;;;;;;4.50;2.95;;;24.10;92.40;;;;;;5072762;28;20212;-59
2022/05/04 11:36:22;;;;;;;3.45;1.83;;;24.30;92.00;;;;;;5053684;28;20231;-57
2022/05/04 11:38:49;;;;;;;2.83;2.30;;;24.30;89.20;;;;;;5054494;28;20259;-58
2022/05/04 11:41:18;;;;;;;3.15;2.50;;;23.90;90.30;;;;;;5053945;28;20237;-58
2022/05/04 11:43:45;;;;;;;3.08;2.22;;;23.80;91.50;;;;;;5054022;28;20635;-58
2022/05/04 11:46:13;;;;;;;2.28;1.90;;;23.80;91.30;;;;;;5054037;28;20206;-58
2022/05/04 11:48:43;;;;;;;3.47;2.00;;;23.90;90.20;;;;;;5053927;28;20589;-58
2022/05/04 11:51:10;;;;;;;6.78;2.85;;;24.10;89.60;;;;;;5053829;28;20321;-58
2022/05/04 11:53:37;;;;;;;3.30;2.35;;;24.20;89.60;;;;;;5054042;28;20285;-58
2022/05/04 11:56:05;;;;;;;2.35;1.98;;;23.90;88.00;;;;;;5053854;28;20593;-57
2022/05/04 11:58:33;;;;;;;3.00;2.42;;;23.50;90.00;;;;;;5054046;28;20260;-58
2022/05/04 12:01:00;;;;;;;3.10;2.30;;;23.30;90.20;;;;;;5053371;28;20287;-58
2022/05/04 12:03:29;;;;;;;4.25;2.35;;;23.20;91.10;;;;;;5054034;28;20297;-58
2022/05/04 12:05:57;;;;;;;4.00;2.13;;;23.30;91.00;;;;;;5053700;28;20434;-58
2022/05/04 12:08:25;;;;;;;2.22;2.00;;;23.50;88.60;;;;;;5053670;28;20354;-57
2022/05/04 12:10:52;;;;;;;3.50;2.45;;;23.80;87.70;;;;;;5052369;28;20226;-58
2022/05/04 12:13:21;;;;;;;3.30;2.28;;;24.10;87.30;;;;;;5053605;28;20205;-58
2022/05/04 12:15:49;;;;;;;2.92;2.33;;;24.30;87.60;;;;;;5053311;28;20320;-58
2022/05/04 12:18:16;;;;;;;3.38;2.53;;;24.50;87.10;;;;;;5053563;28;20207;-57
2022/05/04 12:20:44;;;;;;;4.10;2.90;;;24.50;87.00;;;;;;5053394;28;20226;-59
2022/05/04 12:23:13;;;;;;;3.60;2.85;;;24.50;87.10;;;;;;5053319;28;20201;-58
2022/05/04 12:25:40;;;;;;;2.30;2.10;;;24.50;87.70;;;;;;5053555;28;20205;-58
2022/05/04 12:28:07;;;;;;;4.97;2.50;;;24.40;87.20;;;;;;5053754;28;20209;-59
2022/05/04 12:33:29;;;;;;;2.80;2.42;;;24.00;88.10;;;;;;5053362;28;20283;-58
2022/05/04 12:35:59;;;;;;;4.15;2.30;;;23.90;87.90;;;;;;5053326;28;20232;-60
2022/05/04 12:38:27;;;;;;;4.53;2.63;;;23.80;87.00;;;;;;5053252;28;20206;-59
2022/05/04 12:40:54;;;;;;;4.30;3.20;;;23.70;88.10;;;;;;5053134;28;20598;-60
2022/05/04 12:43:22;;;;;;;4.00;3.45;;;23.60;89.10;;;;;;5053425;28;20644;-60
2022/05/04 12:45:49;;;;;;;5.45;3.78;;;23.50;90.40;;;;;;5053237;28;20669;-58
2022/05/04 12:48:16;;;;;;;4.32;3.55;;;23.40;90.30;;;;;;5053468;28;20621;-58
2022/05/04 12:50:43;;;;;;;3.88;3.47;;;23.50;91.00;;;;;;5052939;28;20226;-59
2022/05/04 12:53:09;;;;;;;4.43;3.70;;;23.60;90.20;;;;;;5053349;28;20255;-59
2022/05/04 12:58:21;;;;;;;5.35;4.63;;;23.90;90.50;;;;;;5053258;28;20579;-59
2022/05/04 13:00:48;;;;;;;4.65;4.25;;;24.00;90.20;;;;;;5052612;28;20241;-59
2022/05/04 13:03:15;;;;;;;6.18;4.32;;;24.20;90.00;;;;;;5053015;28;20662;-58
2022/05/04 13:05:42;;;;;;;7.03;4.80;;;24.40;89.30;;;;;;5052919;28;20209;-59
2022/05/04 13:08:09;;;;;;;6.82;4.78;;;24.70;88.20;;;;;;5052957;28;20669;-60
2022/05/04 13:10:37;;;;;;;5.80;4.78;;;25.00;86.70;;;;;;5052666;28;20229;-58
2022/05/04 13:13:04;;;;;;;5.72;5.10;;;25.20;85.10;;;;;;5052749;28;20210;-58
2022/05/04 13:15:32;;;;;;;6.53;4.43;;;25.30;84.30;;;;;;5052334;28;20225;-59
2022/05/04 13:17:59;;;;;;;5.90;3.60;;;25.60;82.20;;;;;;5052979;28;20210;-59
2022/05/04 13:20:25;;;;;;;2.83;2.63;;;25.80;79.80;;;;;;5052484;28;20274;-58
2022/05/04 13:22:52;;;;;;;4.32;3.00;;;26.00;77.00;;;;;;5052621;28;20650;-58
2022/05/04 13:25:19;;;;;;;3.58;2.65;;;26.00;74.50;;;;;;5052739;28;20284;-58
2022/05/04 13:27:47;;;;;;;4.78;3.10;;;26.00;75.30;;;;;;5052888;28;20252;-58
2022/05/04 13:30:14;;;;;;;4.40;3.72;;;26.00;75.10;;;;;;5052262;28;20205;-59